Terminal Aerodrome Forecast
Issued by NWS

Current Version | Previous Version | Text Only | Print | Product List | Glossary On
Versions: 1 2 3 4 5 6 7 8 9 10 11 12 13
864
FTUS45 KTFX 151728
TAFHVR
TAF
KHVR 151728Z 1518/1618 23021G32KT P6SM SCT060 BKN150
     FM152100 27017G25KT P6SM SCT060 BKN150
     FM160100 30012KT 3SM -SN BR SCT005 OVC030
     FM160500 VRB06KT P6SM SCT005 BKN050=

USA.gov is the U.S. government's official web portal to all federal, state and local government web resources and services.